createdAt,value
2022-08-26T00:01:11.723Z,4.1
2022-08-26T00:03:12.746Z,4.11
2022-08-26T00:05:14.364Z,4.11
2022-08-26T00:09:16.987Z,4.1
2022-08-26T00:11:26.477Z,4.1
2022-08-26T00:13:19.422Z,4.1
2022-08-26T00:15:20.675Z,4.1
2022-08-26T00:19:23.480Z,4.1
2022-08-26T00:21:25.128Z,4.1
2022-08-26T00:23:26.792Z,4.1
2022-08-26T00:25:28.626Z,4.1
2022-08-26T00:27:30.297Z,4.1
2022-08-26T00:29:31.878Z,4.1
2022-08-26T00:33:33.805Z,4.1
2022-08-26T00:37:36.360Z,4.1
2022-08-26T00:41:39.279Z,4.1
2022-08-26T00:43:46.349Z,4.1
2022-08-26T00:45:41.668Z,4.1
2022-08-26T00:47:42.851Z,4.1
2022-08-26T00:51:45.822Z,4.1
2022-08-26T00:53:47.140Z,4.1
2022-08-26T00:55:48.436Z,4.09
2022-08-26T00:57:49.729Z,4.1
2022-08-26T00:59:51.340Z,4.1
2022-08-26T01:01:52.769Z,4.1
2022-08-26T01:03:54.377Z,4.1
2022-08-26T01:05:56.053Z,4.1
2022-08-26T01:07:57.461Z,4.1
2022-08-26T01:09:58.620Z,4.1
2022-08-26T01:12:00.246Z,4.1
2022-08-26T01:14:01.690Z,4.1
2022-08-26T01:18:04.665Z,4.1
2022-08-26T01:20:06.214Z,4.1
2022-08-26T01:22:07.993Z,4.1
2022-08-26T01:24:09.098Z,4.09
2022-08-26T01:26:15.305Z,4.09
2022-08-26T01:28:11.016Z,4.1
2022-08-26T01:30:12.266Z,4.09
2022-08-26T01:34:14.747Z,4.09
2022-08-26T01:36:16.471Z,4.09
2022-08-26T01:38:18.196Z,4.09
2022-08-26T01:40:19.188Z,4.09
2022-08-26T01:42:20.766Z,4.09
2022-08-26T01:44:22.204Z,4.09
2022-08-26T01:46:23.819Z,4.09
2022-08-26T01:50:27.588Z,4.09
2022-08-26T01:52:28.693Z,4.09
2022-08-26T01:54:30.264Z,4.09
2022-08-26T01:56:33.221Z,4.09
2022-08-26T02:00:35.018Z,4.09
2022-08-26T02:02:36.366Z,4.09
2022-08-26T02:06:38.925Z,4.09
2022-08-26T02:08:40.783Z,4.08
2022-08-26T02:10:42.487Z,4.09
2022-08-26T02:14:45.113Z,4.09
2022-08-26T02:16:46.106Z,4.08
2022-08-26T02:18:47.626Z,4.08
2022-08-26T02:19:31.383Z,4.08
2022-08-26T02:21:32.494Z,4.08
2022-08-26T02:23:33.780Z,4.09
2022-08-26T02:25:35.177Z,4.08
2022-08-26T02:27:36.528Z,4.08
2022-08-26T02:29:37.846Z,4.08
2022-08-26T02:31:39.239Z,4.08
2022-08-26T02:33:42.993Z,4.08
2022-08-26T02:37:42.999Z,4.08
2022-08-26T02:39:44.647Z,4.08
2022-08-26T02:41:46.256Z,4.08
2022-08-26T02:43:48.039Z,4.08
2022-08-26T02:45:49.292Z,4.08
2022-08-26T02:47:50.209Z,4.08
2022-08-26T02:49:52.070Z,4.08
2022-08-26T02:51:53.232Z,4.08
2022-08-26T02:53:54.764Z,4.08
2022-08-26T02:55:55.946Z,4.08
2022-08-26T02:57:57.174Z,4.08
2022-08-26T02:59:58.602Z,4.08
2022-08-26T03:02:00.219Z,4.08
2022-08-26T03:04:01.097Z,4.08
2022-08-26T03:06:02.934Z,4.08
2022-08-26T03:08:04.207Z,4.08
2022-08-26T03:10:06.848Z,4.08
2022-08-26T03:12:07.221Z,4.08
2022-08-26T03:14:08.428Z,4.08
2022-08-26T03:16:09.676Z,4.08
2022-08-26T03:20:13.538Z,4.08
2022-08-26T03:22:15.058Z,4.08
2022-08-26T03:24:16.132Z,4.08
2022-08-26T03:26:17.382Z,4.08
2022-08-26T03:28:19.343Z,4.08
2022-08-26T03:30:19.954Z,4.08
2022-08-26T03:32:21.322Z,4.08
2022-08-26T03:34:22.918Z,4.07
2022-08-26T03:36:23.951Z,4.08
2022-08-26T03:38:25.681Z,4.08
2022-08-26T03:40:28.974Z,4.07
2022-08-26T03:42:27.981Z,4.07
2022-08-26T03:44:29.542Z,4.08
2022-08-26T03:46:30.608Z,4.07
2022-08-26T03:50:34.171Z,4.07
2022-08-26T03:54:35.933Z,4.07
2022-08-26T03:56:37.063Z,4.07
2022-08-26T03:58:38.472Z,4.07
2022-08-26T04:00:39.426Z,4.07
2022-08-26T04:02:40.979Z,4.07
2022-08-26T04:04:42.627Z,4.07
2022-08-26T04:08:45.630Z,4.07
2022-08-26T04:10:46.897Z,4.07
2022-08-26T04:12:48.086Z,4.07
2022-08-26T04:14:49.088Z,4.07
2022-08-26T04:18:52.102Z,4.07
2022-08-26T04:21:01.463Z,4.07
2022-08-26T04:22:54.411Z,4.06
2022-08-26T04:24:55.725Z,4.06
2022-08-26T04:26:56.941Z,4.07
2022-08-26T04:28:58.296Z,4.07
2022-08-26T04:31:00.256Z,4.07
2022-08-26T04:33:01.997Z,4.07
2022-08-26T04:35:03.013Z,4.06
2022-08-26T04:37:04.021Z,4.07
2022-08-26T04:39:05.223Z,4.07
2022-08-26T04:41:06.211Z,4.06
2022-08-26T04:43:07.512Z,4.06
2022-08-26T04:45:10.076Z,4.07
2022-08-26T04:47:09.745Z,4.07
2022-08-26T04:51:12.992Z,4.06
2022-08-26T04:53:14.091Z,4.06
2022-08-26T04:55:15.482Z,4.06
2022-08-26T04:57:16.469Z,4.06
2022-08-26T04:59:18.077Z,4.06
2022-08-26T05:01:19.590Z,4.06
2022-08-26T05:03:20.385Z,4.06
2022-08-26T05:05:22.000Z,4.06
2022-08-26T05:07:23.749Z,4.06
2022-08-26T05:09:25.361Z,4.06
2022-08-26T05:11:26.286Z,4.06
2022-08-26T05:13:27.244Z,4.06
2022-08-26T05:17:30.454Z,4.06
2022-08-26T05:19:31.576Z,4.06
2022-08-26T05:21:32.824Z,4.06
2022-08-26T05:23:41.934Z,4.06
2022-08-26T05:25:35.013Z,4.06
2022-08-26T05:27:36.454Z,4.07
2022-08-26T05:29:37.300Z,4.06
2022-08-26T05:31:38.410Z,4.07
2022-08-26T05:33:41.273Z,4.07
2022-08-26T05:35:40.744Z,4.07
2022-08-26T05:37:42.200Z,4.07
2022-08-26T05:39:48.760Z,4.08
2022-08-26T05:41:45.171Z,4.08
2022-08-26T05:45:48.126Z,4.08
2022-08-26T05:47:49.160Z,4.08
2022-08-26T05:49:51.518Z,4.09
2022-08-26T05:51:51.952Z,4.09
2022-08-26T05:53:54.712Z,4.09
2022-08-26T05:55:55.139Z,4.1
2022-08-26T05:57:56.186Z,4.1
2022-08-26T05:59:57.090Z,4.1
2022-08-26T06:03:59.650Z,4.11
2022-08-26T06:08:02.035Z,4.12
2022-08-26T06:10:28.475Z,4.12
2022-08-26T06:12:04.628Z,4.13
2022-08-26T06:14:05.588Z,4.13
2022-08-26T06:16:07.132Z,4.13
2022-08-26T06:18:08.207Z,4.14
2022-08-26T06:20:09.258Z,4.14
2022-08-26T06:22:10.993Z,4.14
2022-08-26T06:24:12.715Z,4.14
2022-08-26T06:26:13.956Z,4.15
2022-08-26T06:30:16.453Z,4.15
2022-08-26T06:32:17.528Z,4.16
2022-08-26T06:34:19.858Z,4.16
2022-08-26T06:38:22.194Z,4.16
2022-08-26T06:40:23.342Z,4.16
2022-08-26T06:42:24.374Z,4.17
2022-08-26T06:44:26.038Z,4.17
2022-08-26T06:48:29.092Z,4.17
2022-08-26T06:50:30.521Z,4.17
2022-08-26T06:52:31.644Z,4.18
2022-08-26T06:54:32.902Z,4.18
2022-08-26T06:58:35.872Z,4.18
2022-08-26T07:00:37.390Z,4.18
2022-08-26T07:04:39.107Z,4.19
2022-08-26T07:06:40.556Z,4.19
2022-08-26T07:08:42.275Z,4.19
2022-08-26T07:10:43.903Z,4.19
2022-08-26T07:12:47.050Z,4.19
2022-08-26T07:14:47.572Z,4.19
2022-08-26T07:16:48.182Z,4.19
2022-08-26T07:18:49.855Z,4.19
2022-08-26T07:20:50.719Z,4.19
2022-08-26T07:22:52.353Z,4.19
2022-08-26T07:26:54.791Z,4.19
2022-08-26T07:30:57.157Z,4.2
2022-08-26T07:32:58.675Z,4.2
2022-08-26T07:35:00.397Z,4.19
2022-08-26T07:39:02.619Z,4.19
2022-08-26T07:41:04.319Z,4.19
2022-08-26T07:43:05.200Z,4.2
2022-08-26T07:45:06.849Z,4.2
2022-08-26T07:47:10.337Z,4.2
2022-08-26T07:49:09.489Z,4.2
2022-08-26T07:51:10.903Z,4.2
2022-08-26T07:53:12.293Z,4.2
2022-08-26T07:55:13.983Z,4.2
2022-08-26T07:57:15.109Z,4.2
2022-08-26T07:59:16.862Z,4.2
2022-08-26T08:01:17.909Z,4.2
2022-08-26T08:03:18.830Z,4.19
2022-08-26T08:05:20.229Z,4.19
2022-08-26T08:07:21.757Z,4.19
2022-08-26T08:09:22.718Z,4.19
2022-08-26T08:13:25.929Z,4.19
2022-08-26T08:15:26.777Z,4.19
2022-08-26T08:17:28.124Z,4.19
2022-08-26T08:19:36.875Z,4.19
2022-08-26T08:21:30.606Z,4.19
2022-08-26T08:23:31.678Z,4.19
2022-08-26T08:25:33.182Z,4.19
2022-08-26T08:29:36.228Z,4.19
2022-08-26T08:31:56.348Z,4.19
2022-08-26T08:33:39.402Z,4.19
2022-08-26T08:35:40.843Z,4.19
2022-08-26T08:37:42.534Z,4.18
2022-08-26T08:39:43.306Z,4.19
2022-08-26T08:41:44.800Z,4.19
2022-08-26T08:45:47.731Z,4.18
2022-08-26T08:47:48.451Z,4.18
2022-08-26T08:49:49.599Z,4.18
2022-08-26T08:51:50.790Z,4.18
2022-08-26T08:55:53.135Z,4.18
2022-08-26T08:57:54.373Z,4.18
2022-08-26T08:59:56.064Z,4.18
2022-08-26T09:01:56.951Z,4.18
2022-08-26T09:03:57.802Z,4.18
2022-08-26T09:04:41.454Z,4.18
2022-08-26T09:06:42.759Z,4.18
2022-08-26T09:08:44.272Z,4.18
2022-08-26T09:10:45.878Z,4.18
2022-08-26T09:12:47.196Z,4.17
2022-08-26T09:14:48.519Z,4.18
2022-08-26T09:16:49.502Z,4.17
2022-08-26T09:18:51.144Z,4.17
2022-08-26T09:20:52.084Z,4.18
2022-08-26T09:22:52.998Z,4.18
2022-08-26T09:24:54.055Z,4.18
2022-08-26T09:26:55.452Z,4.18
2022-08-26T09:28:56.780Z,4.18
2022-08-26T09:30:58.403Z,4.17
2022-08-26T09:32:59.004Z,4.17
2022-08-26T09:35:00.042Z,4.17
2022-08-26T09:37:04.609Z,4.17
2022-08-26T09:41:05.103Z,4.17
2022-08-26T09:45:05.898Z,4.17
2022-08-26T09:49:08.544Z,4.17
2022-08-26T09:51:09.882Z,4.17
2022-08-26T09:53:12.618Z,4.17
2022-08-26T09:55:11.833Z,4.17
2022-08-26T09:57:12.900Z,4.17
2022-08-26T09:59:14.337Z,4.17
2022-08-26T10:01:15.181Z,4.17
2022-08-26T10:05:17.830Z,4.17
2022-08-26T10:07:19.208Z,4.17
2022-08-26T10:09:20.322Z,4.17
2022-08-26T10:13:23.444Z,4.17
2022-08-26T10:15:23.881Z,4.17
2022-08-26T10:17:25.415Z,4.17
2022-08-26T10:19:29.234Z,4.17
2022-08-26T10:21:28.043Z,4.17
2022-08-26T10:23:29.238Z,4.17
2022-08-26T10:25:30.170Z,4.17
2022-08-26T10:27:31.363Z,4.17
2022-08-26T10:31:38.382Z,4.17
2022-08-26T10:33:34.840Z,4.16
2022-08-26T10:35:36.191Z,4.17
2022-08-26T10:37:37.732Z,4.16
2022-08-26T10:39:39.387Z,4.17
2022-08-26T10:41:40.650Z,4.16
2022-08-26T10:43:42.221Z,4.16
2022-08-26T10:45:43.211Z,4.16
2022-08-26T10:47:44.682Z,4.16
2022-08-26T10:49:45.620Z,4.16
2022-08-26T10:51:47.241Z,4.16
2022-08-26T10:53:48.124Z,4.17
2022-08-26T10:57:50.394Z,4.16
2022-08-26T10:59:51.908Z,4.16
2022-08-26T11:01:53.326Z,4.16
2022-08-26T11:03:54.526Z,4.16
2022-08-26T11:05:55.880Z,4.16
2022-08-26T11:07:57.151Z,4.16
2022-08-26T11:09:58.044Z,4.16
2022-08-26T11:14:00.791Z,4.16
2022-08-26T11:16:02.528Z,4.16
2022-08-26T11:18:03.470Z,4.16
2022-08-26T11:20:07.537Z,4.16
2022-08-26T11:22:05.987Z,4.16
2022-08-26T11:24:07.399Z,4.16
2022-08-26T11:26:08.614Z,4.16
2022-08-26T11:28:10.083Z,4.16
2022-08-26T11:30:11.310Z,4.16
2022-08-26T11:32:12.391Z,4.16
2022-08-26T11:34:13.925Z,4.16
2022-08-26T11:36:15.559Z,4.16
2022-08-26T11:38:16.503Z,4.16
2022-08-26T11:40:17.410Z,4.16
2022-08-26T11:42:20.172Z,4.16
2022-08-26T11:46:22.109Z,4.16
2022-08-26T11:48:22.772Z,4.16
2022-08-26T11:50:23.645Z,4.16
2022-08-26T11:54:29.283Z,4.16
2022-08-26T11:56:27.144Z,4.16
2022-08-26T11:58:28.868Z,4.16
2022-08-26T12:00:31.373Z,4.16
2022-08-26T12:02:32.251Z,4.16
2022-08-26T12:04:33.324Z,4.16
2022-08-26T12:06:35.465Z,4.15
2022-08-26T12:08:36.132Z,4.15
2022-08-26T12:12:38.528Z,4.15
2022-08-26T12:14:39.784Z,4.16
2022-08-26T12:18:42.018Z,4.16
2022-08-26T12:20:43.162Z,4.15
2022-08-26T12:22:48.053Z,4.15
2022-08-26T12:24:45.884Z,4.15
2022-08-26T12:28:48.938Z,4.15
2022-08-26T12:30:49.683Z,4.15
2022-08-26T12:34:52.221Z,4.15
2022-08-26T12:36:53.128Z,4.15
2022-08-26T12:38:57.653Z,4.15
2022-08-26T12:40:55.027Z,4.15
2022-08-26T12:42:56.196Z,4.15
2022-08-26T12:44:57.350Z,4.15
2022-08-26T12:46:58.182Z,4.15
2022-08-26T12:48:59.595Z,4.15
2022-08-26T12:51:00.516Z,4.15
2022-08-26T12:53:01.869Z,4.14
2022-08-26T12:55:03.203Z,4.14
2022-08-26T12:57:04.734Z,4.15
2022-08-26T13:01:07.640Z,4.15
2022-08-26T13:03:08.884Z,4.15
2022-08-26T13:05:09.806Z,4.14
2022-08-26T13:07:10.838Z,4.14
2022-08-26T13:09:12.580Z,4.14
2022-08-26T13:11:13.820Z,4.15
2022-08-26T13:13:15.324Z,4.15
2022-08-26T13:17:17.894Z,4.14
2022-08-26T13:19:18.737Z,4.14
2022-08-26T13:21:20.143Z,4.14
2022-08-26T13:23:20.996Z,4.14
2022-08-26T13:27:24.007Z,4.14
2022-08-26T13:29:25.043Z,4.14
2022-08-26T13:33:28.011Z,4.16
2022-08-26T13:35:29.324Z,4.16
2022-08-26T13:37:34.810Z,4.16
2022-08-26T13:43:33.386Z,4.16
2022-08-26T13:45:34.685Z,4.16
2022-08-26T13:47:35.818Z,4.16
2022-08-26T13:49:37.304Z,4.17
2022-08-26T13:51:38.442Z,4.17
2022-08-26T13:53:39.466Z,4.17
2022-08-26T13:55:40.776Z,4.17
2022-08-26T13:59:43.264Z,4.17
2022-08-26T14:01:44.772Z,4.17
2022-08-26T14:03:46.521Z,4.17
2022-08-26T14:05:47.340Z,4.17
2022-08-26T14:09:50.449Z,4.17
2022-08-26T14:11:54.202Z,4.17
2022-08-26T14:13:53.426Z,4.17
2022-08-26T14:15:54.991Z,4.17
2022-08-26T14:19:57.490Z,4.17
2022-08-26T14:21:58.436Z,4.17
2022-08-26T14:26:00.746Z,4.18
2022-08-26T14:28:02.499Z,4.17
2022-08-26T14:30:03.677Z,4.17
2022-08-26T14:32:05.030Z,4.17
2022-08-26T14:34:06.391Z,4.17
2022-08-26T14:36:07.310Z,4.17
2022-08-26T14:38:08.372Z,4.17
2022-08-26T14:42:10.165Z,4.19
2022-08-26T14:44:11.522Z,4.18
2022-08-26T14:46:13.198Z,4.19
2022-08-26T14:48:14.323Z,4.19
2022-08-26T14:50:16.015Z,4.19
2022-08-26T14:52:17.431Z,4.19
2022-08-26T14:54:19.235Z,4.2
2022-08-26T14:58:21.743Z,4.2
2022-08-26T15:00:23.367Z,4.19
2022-08-26T15:02:30.921Z,4.2
2022-08-26T15:04:25.639Z,4.2
2022-08-26T15:08:28.212Z,4.2
2022-08-26T15:10:29.232Z,4.2
2022-08-26T15:14:33.016Z,4.2
2022-08-26T15:16:33.355Z,4.2
2022-08-26T15:18:34.165Z,4.2
2022-08-26T15:20:35.407Z,4.2
2022-08-26T15:22:36.557Z,4.2
2022-08-26T15:24:38.052Z,4.2
2022-08-26T15:26:39.318Z,4.2
2022-08-26T15:28:40.250Z,4.19
2022-08-26T15:30:41.735Z,4.19
2022-08-26T15:32:42.981Z,4.19
2022-08-26T15:34:44.493Z,4.19
2022-08-26T15:36:45.888Z,4.19
2022-08-26T15:40:49.334Z,4.19
2022-08-26T15:42:54.492Z,4.19
2022-08-26T15:44:52.310Z,4.19
2022-08-26T15:46:57.922Z,4.19
2022-08-26T15:50:56.466Z,4.19
2022-08-26T15:51:45.232Z,4.19
2022-08-26T15:53:41.021Z,4.19
2022-08-26T15:55:42.068Z,4.19
2022-08-26T15:57:43.216Z,4.19
2022-08-26T16:01:45.794Z,4.18
2022-08-26T16:03:47.093Z,4.19
2022-08-26T16:05:48.192Z,4.18
2022-08-26T16:07:49.576Z,4.19
2022-08-26T16:09:52.089Z,4.18
2022-08-26T16:11:52.028Z,4.18
2022-08-26T16:15:54.078Z,4.18
2022-08-26T16:17:55.711Z,4.18
2022-08-26T16:19:57.410Z,4.18
2022-08-26T16:21:58.549Z,4.18
2022-08-26T16:23:59.374Z,4.18
2022-08-26T16:26:00.989Z,4.18
2022-08-26T16:28:01.860Z,4.18
2022-08-26T16:30:02.815Z,4.18
2022-08-26T16:34:05.445Z,4.18
2022-08-26T16:36:06.351Z,4.18
2022-08-26T16:38:07.572Z,4.18
2022-08-26T16:40:08.587Z,4.18
2022-08-26T16:44:11.908Z,4.18
2022-08-26T16:46:13.654Z,4.18
2022-08-26T16:50:15.702Z,4.18
2022-08-26T16:52:17.398Z,4.18
2022-08-26T16:54:19.206Z,4.17
2022-08-26T16:56:20.863Z,4.17
2022-08-26T17:00:23.557Z,4.17
2022-08-26T17:02:25.270Z,4.17
2022-08-26T17:04:26.902Z,4.17
2022-08-26T17:06:27.880Z,4.18
2022-08-26T17:08:29.090Z,4.17
2022-08-26T17:10:29.759Z,4.17
2022-08-26T17:12:30.610Z,4.17
2022-08-26T17:16:33.035Z,4.17
2022-08-26T17:18:34.099Z,4.17
2022-08-26T17:20:35.163Z,4.17
2022-08-26T17:22:36.266Z,4.17
2022-08-26T17:26:39.236Z,4.17
2022-08-26T17:28:40.953Z,4.17
2022-08-26T17:30:42.237Z,4.17
2022-08-26T17:32:43.866Z,4.17
2022-08-26T17:34:45.442Z,4.17
2022-08-26T17:36:46.687Z,4.17
2022-08-26T17:40:49.402Z,4.17
2022-08-26T17:42:50.283Z,4.17
2022-08-26T17:44:51.589Z,4.17
2022-08-26T17:48:54.458Z,4.17
2022-08-26T17:50:55.994Z,4.17
2022-08-26T17:52:57.272Z,4.17
2022-08-26T17:54:58.148Z,4.17
2022-08-26T17:59:02.308Z,4.17
2022-08-26T18:01:02.413Z,4.17
2022-08-26T18:03:04.133Z,4.17
2022-08-26T18:05:05.964Z,4.17
2022-08-26T18:07:06.992Z,4.16
2022-08-26T18:09:08.391Z,4.17
2022-08-26T18:11:09.470Z,4.17
2022-08-26T18:13:11.104Z,4.16
2022-08-26T18:17:13.271Z,4.16
2022-08-26T18:21:16.634Z,4.16
2022-08-26T18:23:17.800Z,4.16
2022-08-26T18:25:19.481Z,4.16
2022-08-26T18:27:20.772Z,4.16
2022-08-26T18:29:22.314Z,4.16
2022-08-26T18:31:23.823Z,4.16
2022-08-26T18:33:25.312Z,4.16
2022-08-26T18:35:26.810Z,4.16
2022-08-26T18:37:30.874Z,4.16
2022-08-26T18:41:30.876Z,4.16
2022-08-26T18:43:32.138Z,4.16
2022-08-26T18:45:33.205Z,4.16
2022-08-26T18:47:34.380Z,4.16
2022-08-26T18:49:35.900Z,4.16
2022-08-26T18:51:36.864Z,4.16
2022-08-26T18:53:37.988Z,4.16
2022-08-26T18:55:38.909Z,4.16
2022-08-26T18:57:40.591Z,4.16
2022-08-26T18:59:41.600Z,4.16
2022-08-26T19:01:42.872Z,4.16
2022-08-26T19:03:44.283Z,4.16
2022-08-26T19:05:46.049Z,4.16
2022-08-26T19:09:48.892Z,4.16
2022-08-26T19:11:50.058Z,4.16
2022-08-26T19:13:50.706Z,4.16
2022-08-26T19:15:51.804Z,4.16
2022-08-26T19:17:53.150Z,4.16
2022-08-26T19:19:54.458Z,4.16
2022-08-26T19:23:57.625Z,4.16
2022-08-26T19:25:58.657Z,4.15
2022-08-26T19:28:00.163Z,4.15
2022-08-26T19:30:02.203Z,4.15
2022-08-26T19:32:02.803Z,4.16
2022-08-26T19:36:06.518Z,4.15
2022-08-26T19:40:07.808Z,4.15
2022-08-26T19:42:09.493Z,4.15
2022-08-26T19:44:11.134Z,4.15
2022-08-26T19:46:12.738Z,4.16
2022-08-26T19:48:15.098Z,4.15
2022-08-26T19:50:15.452Z,4.15
2022-08-26T19:54:18.644Z,4.15
2022-08-26T19:56:19.952Z,4.15
2022-08-26T19:58:21.622Z,4.15
2022-08-26T20:00:23.026Z,4.15
2022-08-26T20:02:24.871Z,4.15
2022-08-26T20:06:27.120Z,4.14
2022-08-26T20:08:28.931Z,4.14
2022-08-26T20:10:30.039Z,4.14
2022-08-26T20:12:31.786Z,4.14
2022-08-26T20:14:33.490Z,4.15
2022-08-26T20:16:35.134Z,4.15
2022-08-26T20:18:36.816Z,4.15
2022-08-26T20:22:38.697Z,4.14
2022-08-26T20:24:39.590Z,4.14
2022-08-26T20:28:42.182Z,4.14
2022-08-26T20:32:45.133Z,4.14
2022-08-26T20:34:46.276Z,4.14
2022-08-26T20:36:47.329Z,4.14
2022-08-26T20:38:48.525Z,4.14
2022-08-26T20:40:49.957Z,4.14
2022-08-26T20:42:50.891Z,4.14
2022-08-26T20:44:54.542Z,4.14
2022-08-26T20:46:53.851Z,4.14
2022-08-26T20:48:55.329Z,4.14
2022-08-26T20:50:56.914Z,4.14
2022-08-26T20:52:58.575Z,4.14
2022-08-26T20:55:00.258Z,4.14
2022-08-26T20:57:01.176Z,4.14
2022-08-26T20:59:02.386Z,4.14
2022-08-26T21:01:07.424Z,4.14
2022-08-26T21:05:06.516Z,4.14
2022-08-26T21:07:07.458Z,4.14
2022-08-26T21:09:09.237Z,4.14
2022-08-26T21:11:11.044Z,4.14
2022-08-26T21:13:12.883Z,4.14
2022-08-26T21:15:13.810Z,4.14
2022-08-26T21:17:15.605Z,4.14
2022-08-26T21:21:18.623Z,4.14
2022-08-26T21:23:19.694Z,4.13
2022-08-26T21:25:21.351Z,4.14
2022-08-26T21:27:23.225Z,4.14
2022-08-26T21:31:26.738Z,4.13
2022-08-26T21:33:27.649Z,4.13
2022-08-26T21:35:28.807Z,4.13
2022-08-26T21:37:30.394Z,4.14
2022-08-26T21:39:31.811Z,4.13
2022-08-26T21:41:33.165Z,4.13
2022-08-26T21:45:36.125Z,4.13
2022-08-26T21:47:37.425Z,4.13
2022-08-26T21:49:38.458Z,4.13
2022-08-26T21:51:40.029Z,4.13
2022-08-26T21:53:41.776Z,4.13
2022-08-26T21:55:43.213Z,4.13
2022-08-26T21:57:44.236Z,4.13
2022-08-26T21:59:45.699Z,4.13
2022-08-26T22:03:49.152Z,4.13
2022-08-26T22:05:50.197Z,4.13
2022-08-26T22:07:51.595Z,4.13
2022-08-26T22:09:52.667Z,4.13
2022-08-26T22:13:56.117Z,4.13
2022-08-26T22:15:57.599Z,4.13
2022-08-26T22:20:00.042Z,4.13
2022-08-26T22:22:01.311Z,4.13
2022-08-26T22:24:02.842Z,4.13
2022-08-26T22:26:04.622Z,4.13
2022-08-26T22:30:07.179Z,4.13
2022-08-26T22:32:08.290Z,4.13
2022-08-26T22:34:09.244Z,4.13
2022-08-26T22:36:10.144Z,4.13
2022-08-26T22:36:53.896Z,4.12
2022-08-26T22:40:57.170Z,4.13
2022-08-26T22:43:00.086Z,4.13
2022-08-26T22:44:59.945Z,4.12
2022-08-26T22:47:00.853Z,4.12
2022-08-26T22:51:02.866Z,4.12
2022-08-26T22:53:04.469Z,4.12
2022-08-26T22:55:05.486Z,4.12
2022-08-26T22:57:07.000Z,4.12
2022-08-26T22:59:08.757Z,4.12
2022-08-26T23:01:10.166Z,4.12
2022-08-26T23:03:11.393Z,4.12
2022-08-26T23:07:14.283Z,4.12
2022-08-26T23:09:15.771Z,4.12
2022-08-26T23:11:16.646Z,4.12
2022-08-26T23:13:18.237Z,4.12
2022-08-26T23:15:19.442Z,4.12
2022-08-26T23:17:20.819Z,4.12
2022-08-26T23:19:22.577Z,4.12
2022-08-26T23:23:25.253Z,4.12
2022-08-26T23:25:26.721Z,4.12
2022-08-26T23:27:28.380Z,4.12
2022-08-26T23:29:30.028Z,4.12
2022-08-26T23:33:33.630Z,4.12
2022-08-26T23:35:34.508Z,4.12
2022-08-26T23:39:36.570Z,4.11
2022-08-26T23:41:37.673Z,4.12
2022-08-26T23:43:39.018Z,4.11
2022-08-26T23:45:40.277Z,4.12
2022-08-26T23:49:42.446Z,4.12
2022-08-26T23:51:43.759Z,4.12
2022-08-26T23:53:45.327Z,4.12
2022-08-26T23:55:46.677Z,4.11
2022-08-26T23:57:47.656Z,4.12
2022-08-26T23:59:48.556Z,4.12
